Time;durP1;ratioP1;P1;durP2;ratioP2;P2;SDS_P1;SDS_P2;PMS_P1;PMS_P2;Temp;Humidity;BMP_temperature;BMP_pressure;BME280_temperature;BME280_humidity;BME280_pressure;Samples;Min_cycle;Max_cycle;Signal;HPM_P1;HPM_P2
2022/05/09 00:02:11;;;;;;;13.95;3.45;;;;;;;;;;4991781;28;95371;-73
2022/05/09 00:04:38;;;;;;;12.38;3.75;;;;;;;;;;4991698;28;96789;-73
2022/05/09 00:07:04;;;;;;;16.75;3.50;;;;;;;;;;4991342;28;97142;-73
2022/05/09 00:09:31;;;;;;;15.68;3.90;;;;;;;;;;4995428;28;95553;-75
2022/05/09 00:11:58;;;;;;;13.00;3.78;;;;;;;;;;4991577;28;97229;-74
2022/05/09 00:14:24;;;;;;;13.07;3.50;;;;;;;;;;5024257;28;95302;-74
2022/05/09 00:16:51;;;;;;;13.05;3.60;;;;;;;;;;4991754;28;96796;-74
2022/05/09 00:19:20;;;;;;;11.43;3.03;;;;;;;;;;4990819;28;98275;-73
2022/05/09 00:21:48;;;;;;;13.98;3.60;;;;;;;;;;4992183;28;95299;-74
2022/05/09 00:24:17;;;;;;;12.95;3.42;;;;;;;;;;4992589;28;96799;-74
2022/05/09 00:26:44;;;;;;;11.70;3.83;;;;;;;;;;4991306;28;97322;-72
2022/05/09 00:29:11;;;;;;;14.23;3.60;;;;;;;;;;4991576;28;95238;-73
2022/05/09 00:31:39;;;;;;;13.10;4.10;;;;;;;;;;4993926;28;96858;-74
2022/05/09 00:34:06;;;;;;;16.63;3.78;;;;;;;;;;4992433;28;95285;-74
2022/05/09 00:36:32;;;;;;;14.35;3.60;;;;;;;;;;4992424;28;97330;-74
2022/05/09 00:39:01;;;;;;;10.52;3.20;;;;;;;;;;4994407;28;97269;-74
2022/05/09 00:41:40;;;;;;;14.45;3.42;;;;;;;;;;4994999;28;95297;-74
2022/05/09 00:44:09;;;;;;;15.30;3.45;;;;;;;;;;4995088;28;95829;-73
2022/05/09 00:46:39;;;;;;;10.48;3.53;;;;;;;;;;4993911;28;97321;-73
2022/05/09 00:49:12;;;;;;;13.02;3.47;;;;;;;;;;4994865;28;95562;-74
2022/05/09 00:51:39;;;;;;;13.23;3.53;;;;;;;;;;4993513;28;97269;-73
2022/05/09 00:54:06;;;;;;;13.70;3.60;;;;;;;;;;4997473;28;96452;-74
2022/05/09 00:56:37;;;;;;;16.92;5.18;;;;;;;;;;4994268;28;97139;-73
2022/05/09 00:59:06;;;;;;;14.80;4.13;;;;;;;;;;4995324;28;97292;-73
2022/05/09 01:01:34;;;;;;;8.32;3.47;;;;;;;;;;4994488;28;95364;-73
2022/05/09 01:04:02;;;;;;;13.68;3.80;;;;;;;;;;4995595;28;96791;-75
2022/05/09 01:06:28;;;;;;;13.23;3.95;;;;;;;;;;4994062;28;95364;-74
2022/05/09 01:08:55;;;;;;;17.35;3.95;;;;;;;;;;4994627;28;95208;-74
2022/05/09 01:11:23;;;;;;;16.23;4.07;;;;;;;;;;4994744;28;96680;-72
2022/05/09 01:13:54;;;;;;;12.55;3.42;;;;;;;;;;4994665;28;97529;-72
2022/05/09 01:16:20;;;;;;;15.70;3.78;;;;;;;;;;4997787;28;95303;-73
2022/05/09 01:18:48;;;;;;;13.68;3.70;;;;;;;;;;4993901;28;96797;-73
2022/05/09 01:21:34;;;;;;;10.52;4.22;;;;;;;;;;4994044;28;95319;-73
2022/05/09 01:24:01;;;;;;;10.63;3.60;;;;;;;;;;4994490;28;97187;-73
2022/05/09 01:26:27;;;;;;;11.38;3.60;;;;;;;;;;4993379;28;97458;-73
2022/05/09 01:28:56;;;;;;;16.55;4.05;;;;;;;;;;4994362;28;95373;-73
2022/05/09 01:31:23;;;;;;;14.30;3.92;;;;;;;;;;4994412;28;95841;-73
2022/05/09 01:33:51;;;;;;;12.57;3.55;;;;;;;;;;4994112;28;97279;-73
2022/05/09 01:36:27;;;;;;;14.02;3.22;;;;;;;;;;4994234;28;95553;-73
2022/05/09 01:38:56;;;;;;;12.75;4.25;;;;;;;;;;4998118;28;97259;-73
2022/05/09 01:41:24;;;;;;;9.50;3.67;;;;;;;;;;4993818;28;95310;-73
2022/05/09 01:43:52;;;;;;;14.48;3.70;;;;;;;;;;4993653;28;97313;-73
2022/05/09 01:46:20;;;;;;;13.18;3.85;;;;;;;;;;4993264;28;96740;-73
2022/05/09 01:51:32;;;;;;;11.60;3.90;;;;;;;;;;4992457;28;96860;-74
2022/05/09 01:53:59;;;;;;;13.38;3.72;;;;;;;;;;4993840;28;96288;-75
2022/05/09 01:56:27;;;;;;;13.23;4.20;;;;;;;;;;4993047;28;95452;-74
2022/05/09 01:58:54;;;;;;;12.75;3.80;;;;;;;;;;4994410;28;95774;-73
2022/05/09 02:01:21;;;;;;;15.65;4.03;;;;;;;;;;4995623;28;97371;-73
2022/05/09 02:03:49;;;;;;;13.45;4.22;;;;;;;;;;4994527;28;96816;-74
2022/05/09 02:06:17;;;;;;;11.63;4.30;;;;;;;;;;4993847;28;96224;-73
2022/05/09 02:08:44;;;;;;;17.42;4.18;;;;;;;;;;4994351;28;95429;-74
2022/05/09 02:11:11;;;;;;;13.30;4.13;;;;;;;;;;4992774;28;96920;-74
2022/05/09 02:13:45;;;;;;;11.02;3.80;;;;;;;;;;4993321;28;97588;-74
2022/05/09 02:16:16;;;;;;;14.13;3.90;;;;;;;;;;4993691;28;95317;-72
2022/05/09 02:18:43;;;;;;;12.27;4.00;;;;;;;;;;4993043;28;96732;-73
2022/05/09 02:21:09;;;;;;;13.25;3.92;;;;;;;;;;4995670;28;97370;-74
2022/05/09 02:23:36;;;;;;;11.75;3.58;;;;;;;;;;4993091;28;98641;-73
2022/05/09 02:26:02;;;;;;;17.92;4.32;;;;;;;;;;4993285;28;97715;-75
2022/05/09 02:28:29;;;;;;;14.07;4.13;;;;;;;;;;4993733;28;95262;-73
2022/05/09 02:30:55;;;;;;;20.23;4.65;;;;;;;;;;4993736;28;97012;-73
2022/05/09 02:33:22;;;;;;;14.18;4.20;;;;;;;;;;4991291;28;97465;-73
2022/05/09 02:35:49;;;;;;;15.30;4.47;;;;;;;;;;4993451;28;95416;-73
2022/05/09 02:38:16;;;;;;;23.80;4.57;;;;;;;;;;4993019;28;96705;-73
2022/05/09 02:40:42;;;;;;;20.75;4.38;;;;;;;;;;4993564;28;97714;-73
2022/05/09 02:43:09;;;;;;;16.42;4.22;;;;;;;;;;4994869;28;95535;-72
2022/05/09 02:45:36;;;;;;;20.67;4.47;;;;;;;;;;4992738;28;97359;-73
2022/05/09 02:48:03;;;;;;;16.35;4.07;;;;;;;;;;4993405;28;95318;-72
2022/05/09 02:50:30;;;;;;;12.50;3.75;;;;;;;;;;4992734;28;96869;-73
2022/05/09 02:52:56;;;;;;;17.42;3.80;;;;;;;;;;4991598;28;97290;-73
2022/05/09 02:55:23;;;;;;;15.90;4.15;;;;;;;;;;4992598;28;95355;-73
2022/05/09 02:57:50;;;;;;;12.40;4.00;;;;;;;;;;4993426;28;96783;-72
2022/05/09 03:00:18;;;;;;;17.48;4.63;;;;;;;;;;4991573;28;97286;-72
2022/05/09 03:05:34;;;;;;;16.33;4.60;;;;;;;;;;4995944;28;99138;-73
2022/05/09 03:08:01;;;;;;;16.00;4.45;;;;;;;;;;4993018;28;95817;-73
2022/05/09 03:10:28;;;;;;;15.75;4.70;;;;;;;;;;4993156;28;96926;-73
2022/05/09 03:13:01;;;;;;;13.77;4.55;;;;;;;;;;4991887;28;97395;-72
2022/05/09 03:15:29;;;;;;;15.60;4.72;;;;;;;;;;4992561;28;95299;-73
2022/05/09 03:17:57;;;;;;;12.77;4.10;;;;;;;;;;4995597;28;96702;-73
2022/05/09 03:20:24;;;;;;;18.48;5.57;;;;;;;;;;4991726;28;97241;-73
2022/05/09 03:22:50;;;;;;;14.68;4.00;;;;;;;;;;4992552;28;95398;-73
2022/05/09 03:25:17;;;;;;;12.68;4.45;;;;;;;;;;4992385;28;96851;-72
2022/05/09 03:27:44;;;;;;;19.45;4.70;;;;;;;;;;4995114;28;96121;-73
2022/05/09 03:30:11;;;;;;;15.55;4.53;;;;;;;;;;4992014;28;96794;-73
2022/05/09 03:32:39;;;;;;;20.05;4.75;;;;;;;;;;4991601;28;98513;-73
2022/05/09 03:35:06;;;;;;;13.00;4.78;;;;;;;;;;4992408;28;95569;-73
2022/05/09 03:37:32;;;;;;;14.07;5.00;;;;;;;;;;4992221;28;95215;-72
2022/05/09 03:39:59;;;;;;;13.70;4.60;;;;;;;;;;4991713;28;97337;-72
2022/05/09 03:42:26;;;;;;;15.80;4.88;;;;;;;;;;4991903;28;95344;-73
2022/05/09 03:44:52;;;;;;;13.38;4.95;;;;;;;;;;4992448;28;96775;-74
2022/05/09 03:47:19;;;;;;;16.70;4.47;;;;;;;;;;4992203;28;97246;-73
2022/05/09 03:49:45;;;;;;;18.58;5.05;;;;;;;;;;4994733;28;96431;-73
2022/05/09 03:52:11;;;;;;;11.32;4.43;;;;;;;;;;4991549;28;97732;-73
2022/05/09 03:54:38;;;;;;;18.80;5.13;;;;;;;;;;4991094;28;95226;-74
2022/05/09 03:57:05;;;;;;;12.23;4.80;;;;;;;;;;4992284;28;96773;-73
2022/05/09 03:59:32;;;;;;;14.77;4.43;;;;;;;;;;4990405;28;97607;-73
2022/05/09 04:01:58;;;;;;;13.10;4.85;;;;;;;;;;4992192;28;95466;-73
2022/05/09 04:04:25;;;;;;;12.85;4.45;;;;;;;;;;4991159;28;96820;-74
2022/05/09 04:06:51;;;;;;;16.77;5.38;;;;;;;;;;4992423;28;97481;-75
2022/05/09 04:09:18;;;;;;;15.05;5.85;;;;;;;;;;4991510;28;95341;-73
2022/05/09 04:11:47;;;;;;;14.23;5.50;;;;;;;;;;4995649;28;96876;-73
2022/05/09 04:14:13;;;;;;;11.80;4.40;;;;;;;;;;4995341;28;95162;-73
2022/05/09 04:16:51;;;;;;;15.00;4.90;;;;;;;;;;4995211;28;97601;-71
2022/05/09 04:19:19;;;;;;;19.70;5.15;;;;;;;;;;5003415;28;97354;-73
2022/05/09 04:21:46;;;;;;;14.80;4.95;;;;;;;;;;5015703;28;95304;-73
2022/05/09 04:24:13;;;;;;;17.00;4.85;;;;;;;;;;4993522;28;96982;-73
2022/05/09 19:24:54;;;;;;;13.00;5.15;;;;;;;;;;5090270;27;95451;-75
2022/05/09 19:27:21;;;;;;;13.45;5.07;;;;;;;;;;5068220;27;97347;-75
2022/05/09 19:29:50;;;;;;;12.02;5.13;;;;;;;;;;5068824;27;95791;-72
2022/05/09 19:32:21;;;;;;;15.10;5.22;;;;;;;;;;5065861;27;96655;-77
2022/05/09 19:34:47;;;;;;;11.07;5.38;;;;;;;;;;5079696;27;97396;-75
2022/05/09 19:37:16;;;;;;;12.13;5.53;;;;;;;;;;5051829;27;95386;-74
2022/05/09 19:39:42;;;;;;;13.10;5.15;;;;;;;;;;5068005;27;95661;-74
2022/05/09 19:42:10;;;;;;;13.25;5.10;;;;;;;;;;5081465;27;96546;-75
2022/05/09 19:44:41;;;;;;;24.60;5.53;;;;;;;;;;5071797;27;95105;-74
2022/05/09 19:47:10;;;;;;;29.63;5.65;;;;;;;;;;5082597;27;97122;-74
2022/05/09 19:49:39;;;;;;;9.98;5.35;;;;;;;;;;5067332;27;95122;-74
2022/05/09 19:54:50;;;;;;;15.63;5.70;;;;;;;;;;5069961;27;97327;-73
2022/05/09 19:57:17;;;;;;;13.68;5.70;;;;;;;;;;5069432;27;97098;-74
2022/05/09 19:59:43;;;;;;;13.82;5.45;;;;;;;;;;5069960;27;96801;-75
2022/05/09 20:02:12;;;;;;;16.30;5.72;;;;;;;;;;5067731;27;97326;-74
2022/05/09 20:04:39;;;;;;;18.15;4.93;;;;;;;;;;5068114;27;95263;-74
2022/05/09 20:07:05;;;;;;;20.33;5.20;;;;;;;;;;5070337;27;97218;-73
2022/05/09 20:09:31;;;;;;;17.60;5.60;;;;;;;;;;5068097;27;95398;-74
2022/05/09 20:12:02;;;;;;;23.83;5.72;;;;;;;;;;5068714;27;96779;-77
2022/05/09 20:14:41;;;;;;;23.48;5.72;;;;;;;;;;5055972;27;97354;-77
2022/05/09 20:17:07;;;;;;;17.23;5.25;;;;;;;;;;5086606;27;96256;-76
2022/05/09 20:19:34;;;;;;;20.02;6.97;;;;;;;;;;5068238;27;96881;-72
2022/05/09 20:22:01;;;;;;;23.13;5.93;;;;;;;;;;5067673;27;96192;-76
2022/05/09 20:24:27;;;;;;;15.70;6.53;;;;;;;;;;5069733;27;95899;-76
2022/05/09 20:29:59;;;;;;;29.60;7.20;;;;;;;;;;5080104;27;97424;-73
2022/05/09 20:32:30;;;;;;;21.35;6.07;;;;;;;;;;5076172;27;96974;-75
2022/05/09 20:34:57;;;;;;;17.02;6.35;;;;;;;;;;5077422;27;97278;-74
2022/05/09 20:37:31;;;;;;;16.02;6.10;;;;;;;;;;5058339;27;96024;-76
2022/05/09 20:39:59;;;;;;;12.05;5.78;;;;;;;;;;5055260;27;96912;-76
2022/05/09 20:42:26;;;;;;;45.80;6.97;;;;;;;;;;5057088;27;97329;-76
2022/05/09 20:44:53;;;;;;;15.02;6.45;;;;;;;;;;5056109;27;95762;-76
2022/05/09 20:47:20;;;;;;;13.05;5.70;;;;;;;;;;5054385;27;96631;-76
2022/05/09 20:49:47;;;;;;;16.30;6.63;;;;;;;;;;5054354;27;97310;-76
2022/05/09 20:52:15;;;;;;;19.70;7.00;;;;;;;;;;5059123;27;95354;-74
2022/05/09 20:54:41;;;;;;;18.90;6.68;;;;;;;;;;5065569;27;97276;-74
2022/05/09 20:57:12;;;;;;;18.88;6.45;;;;;;;;;;5059704;27;96051;-77
2022/05/09 20:59:38;;;;;;;17.17;6.35;;;;;;;;;;5051572;27;96919;-76
2022/05/09 21:02:09;;;;;;;24.55;6.65;;;;;;;;;;5055606;27;97519;-76
2022/05/09 21:04:36;;;;;;;13.63;6.03;;;;;;;;;;5062734;27;95930;-75
2022/05/09 21:07:04;;;;;;;15.15;6.47;;;;;;;;;;5057275;27;96578;-76
2022/05/09 21:09:30;;;;;;;11.20;6.10;;;;;;;;;;5052813;27;98134;-76
2022/05/09 21:12:00;;;;;;;27.77;6.97;;;;;;;;;;5065826;27;97002;-74
2022/05/09 21:14:32;;;;;;;13.38;5.95;;;;;;;;;;5050592;27;96724;-75
2022/05/09 21:16:59;;;;;;;18.55;6.72;;;;;;;;;;5059646;27;96867;-75
2022/05/09 21:19:25;;;;;;;16.55;6.25;;;;;;;;;;5064723;27;96768;-76
2022/05/09 21:21:51;;;;;;;19.65;6.50;;;;;;;;;;5075541;27;97306;-75
2022/05/09 21:24:20;;;;;;;30.17;7.47;;;;;;;;;;5064173;27;95268;-76
2022/05/09 21:26:46;;;;;;;20.30;6.95;;;;;;;;;;5054743;27;95525;-75
2022/05/09 21:29:12;;;;;;;17.05;6.60;;;;;;;;;;5060910;27;96875;-75
2022/05/09 21:31:39;;;;;;;15.80;6.90;;;;;;;;;;5074690;27;95369;-76
2022/05/09 21:34:06;;;;;;;20.38;6.70;;;;;;;;;;5054159;27;96706;-76
2022/05/09 21:36:34;;;;;;;13.45;6.75;;;;;;;;;;5057609;27;95407;-76
2022/05/09 21:41:48;;;;;;;12.77;6.80;;;;;;;;;;5054565;27;97364;-76
2022/05/09 21:44:15;;;;;;;12.98;6.57;;;;;;;;;;5062428;27;95191;-74
2022/05/09 21:46:42;;;;;;;22.92;7.05;;;;;;;;;;5066931;27;96636;-76
2022/05/09 21:49:09;;;;;;;17.77;7.00;;;;;;;;;;5054818;27;97730;-75
2022/05/09 21:51:35;;;;;;;17.20;7.10;;;;;;;;;;5053687;27;95498;-77
2022/05/09 21:54:02;;;;;;;16.17;6.30;;;;;;;;;;5057747;27;96503;-77
2022/05/09 21:56:29;;;;;;;14.75;6.20;;;;;;;;;;5058156;27;99530;-74
2022/05/09 21:58:55;;;;;;;18.45;7.07;;;;;;;;;;5054474;27;96979;-76
2022/05/09 22:01:22;;;;;;;17.73;6.43;;;;;;;;;;5054278;27;97300;-76
2022/05/09 22:03:49;;;;;;;11.57;6.47;;;;;;;;;;5054297;27;95257;-77
2022/05/09 22:06:26;;;;;;;17.80;6.28;;;;;;;;;;5054014;27;96723;-76
2022/05/09 22:08:54;;;;;;;23.33;6.47;;;;;;;;;;5054030;27;96253;-76
2022/05/09 22:11:21;;;;;;;17.77;6.05;;;;;;;;;;5053993;27;95299;-75
2022/05/09 22:13:47;;;;;;;17.38;6.43;;;;;;;;;;5056195;27;95696;-75
2022/05/09 22:16:13;;;;;;;13.77;6.03;;;;;;;;;;5055533;27;97314;-75
2022/05/09 22:18:40;;;;;;;16.92;6.40;;;;;;;;;;5057705;27;96076;-75
2022/05/09 22:21:06;;;;;;;16.50;6.20;;;;;;;;;;5053387;27;97321;-74
2022/05/09 22:23:33;;;;;;;15.60;6.47;;;;;;;;;;5053148;27;95218;-74
2022/05/09 22:26:00;;;;;;;18.48;6.75;;;;;;;;;;5054326;27;96532;-75
2022/05/09 22:28:27;;;;;;;16.27;6.57;;;;;;;;;;5053292;27;97144;-75
2022/05/09 22:30:54;;;;;;;13.10;6.18;;;;;;;;;;5053461;27;95073;-76
2022/05/09 22:33:21;;;;;;;11.50;6.53;;;;;;;;;;5053715;27;96760;-75
2022/05/09 22:35:47;;;;;;;18.27;7.40;;;;;;;;;;5053573;27;97306;-77
2022/05/09 22:38:16;;;;;;;13.15;7.22;;;;;;;;;;5059929;27;95270;-77
2022/05/09 22:41:04;;;;;;;29.20;7.00;;;;;;;;;;5076274;27;98774;-74
2022/05/09 22:43:30;;;;;;;16.15;8.02;;;;;;;;;;5070724;27;96451;-76
2022/05/09 22:45:56;;;;;;;20.33;7.72;;;;;;;;;;5066850;27;96793;-77
2022/05/09 22:48:23;;;;;;;15.43;7.78;;;;;;;;;;5053131;27;97375;-76
2022/05/09 22:50:50;;;;;;;13.52;7.57;;;;;;;;;;5053821;27;95439;-75
2022/05/09 22:53:34;;;;;;;11.90;7.18;;;;;;;;;;5053887;27;96874;-77
2022/05/09 22:56:01;;;;;;;13.63;7.88;;;;;;;;;;5053347;27;97889;-75
2022/05/09 22:58:38;;;;;;;17.58;8.50;;;;;;;;;;5053413;27;95384;-74
2022/05/09 23:01:05;;;;;;;20.50;8.55;;;;;;;;;;5053770;27;96806;-74
2022/05/09 23:03:32;;;;;;;15.80;8.68;;;;;;;;;;5075104;27;98149;-76
2022/05/09 23:05:58;;;;;;;17.45;8.70;;;;;;;;;;5074395;27;97008;-76
2022/05/09 23:08:24;;;;;;;18.25;9.10;;;;;;;;;;5071976;27;97360;-77
2022/05/09 23:10:51;;;;;;;21.15;10.18;;;;;;;;;;5052897;27;95315;-78
2022/05/09 23:13:22;;;;;;;27.85;11.20;;;;;;;;;;5052188;27;96587;-73
2022/05/09 23:15:49;;;;;;;18.38;7.55;;;;;;;;;;5052957;27;97247;-74
2022/05/09 23:18:15;;;;;;;17.73;7.55;;;;;;;;;;5052259;27;95472;-74
2022/05/09 23:20:42;;;;;;;22.10;8.55;;;;;;;;;;5052819;27;96292;-74
2022/05/09 23:23:09;;;;;;;15.05;7.53;;;;;;;;;;5051901;27;97349;-73
2022/05/09 23:25:35;;;;;;;14.13;7.63;;;;;;;;;;5057008;27;96287;-74
2022/05/09 23:28:02;;;;;;;12.40;7.60;;;;;;;;;;5053385;27;97290;-75
2022/05/09 23:30:28;;;;;;;17.75;7.90;;;;;;;;;;5052421;27;95168;-73
2022/05/09 23:32:55;;;;;;;19.02;8.52;;;;;;;;;;5052170;27;96807;-76
2022/05/09 23:35:23;;;;;;;16.52;7.75;;;;;;;;;;5052753;27;95909;-77
2022/05/09 23:37:49;;;;;;;17.60;7.88;;;;;;;;;;5052538;27;95209;-75
2022/05/09 23:40:16;;;;;;;23.17;8.20;;;;;;;;;;5052753;27;96682;-75
2022/05/09 23:42:44;;;;;;;18.65;8.88;;;;;;;;;;5068409;27;97405;-75
2022/05/09 23:45:11;;;;;;;16.70;7.90;;;;;;;;;;5075956;27;95432;-74
2022/05/09 23:47:38;;;;;;;15.35;9.18;;;;;;;;;;5063980;27;96570;-77
2022/05/09 23:50:04;;;;;;;14.43;8.45;;;;;;;;;;5052820;27;95564;-77
2022/05/09 23:52:32;;;;;;;18.13;8.45;;;;;;;;;;5051935;27;96794;-74
2022/05/09 23:54:58;;;;;;;16.10;8.82;;;;;;;;;;5052618;27;97406;-77
2022/05/09 23:57:24;;;;;;;17.60;8.57;;;;;;;;;;5056213;27;95246;-75
2022/05/09 23:59:50;;;;;;;15.95;9.23;;;;;;;;;;5072869;27;96510;-76
